Time;durP1;ratioP1;P1;durP2;ratioP2;P2;SDS_P1;SDS_P2;PMS_P1;PMS_P2;Temp;Humidity;BMP_temperature;BMP_pressure;BME280_temperature;BME280_humidity;BME280_pressure;Samples;Min_cycle;Max_cycle;Signal;HPM_P1;HPM_P2
2022/11/29 00:02:08;;;;;;;45.58;29.88;;;;;;;5.95;100.00;101367.56;5017801;28;20032;-59
2022/11/29 00:04:33;;;;;;;44.58;29.90;;;;;;;5.96;100.00;101366.53;5010788;28;20029;-60
2022/11/29 00:06:58;;;;;;;48.53;28.40;;;;;;;5.91;100.00;101378.00;5008025;28;20539;-59
2022/11/29 00:09:24;;;;;;;53.90;29.67;;;;;;;5.91;100.00;101369.81;5022331;28;20038;-60
2022/11/29 00:14:33;;;;;;;39.38;26.52;;;;;;;5.90;100.00;101367.25;5017848;28;20044;-59
2022/11/29 00:17:00;;;;;;;35.38;26.08;;;;;;;5.88;100.00;101375.63;4997326;28;20105;-60
2022/11/29 00:19:26;;;;;;;43.58;28.83;;;;;;;5.89;100.00;101371.03;5005635;28;20117;-59
2022/11/29 00:21:52;;;;;;;42.67;27.67;;;;;;;5.88;100.00;101374.75;5024582;28;20044;-61
2022/11/29 00:24:18;;;;;;;41.00;27.98;;;;;;;5.86;100.00;101379.56;5010239;28;20033;-60
2022/11/29 00:26:43;;;;;;;45.80;27.42;;;;;;;5.84;100.00;101374.31;5012725;28;20032;-60
2022/11/29 00:29:10;;;;;;;46.05;26.60;;;;;;;5.81;100.00;101379.28;5020006;28;20061;-60
2022/11/29 00:31:36;;;;;;;42.53;28.30;;;;;;;5.83;100.00;101380.81;5015619;28;20030;-59
2022/11/29 00:34:03;;;;;;;40.13;27.38;;;;;;;5.84;100.00;101382.50;4996496;28;20030;-60
2022/11/29 00:36:29;;;;;;;40.33;26.23;;;;;;;5.82;100.00;101386.41;5007540;28;20105;-59
2022/11/29 00:38:54;;;;;;;35.33;25.30;;;;;;;5.80;100.00;101386.63;5007210;28;20392;-61
2022/11/29 00:41:20;;;;;;;32.70;24.88;;;;;;;5.81;100.00;101392.91;5018984;28;20460;-59
2022/11/29 00:43:45;;;;;;;33.47;24.77;;;;;;;5.80;100.00;101393.94;5007708;28;20030;-60
2022/11/29 00:46:11;;;;;;;44.08;24.60;;;;;;;5.76;100.00;101393.47;5007967;28;20088;-60
2022/11/29 00:48:36;;;;;;;51.20;24.80;;;;;;;5.76;100.00;101389.91;5024033;28;20025;-59
2022/11/29 00:51:03;;;;;;;60.38;25.35;;;;;;;5.73;100.00;101394.69;5008907;28;20449;-60
2022/11/29 00:53:28;;;;;;;46.88;24.58;;;;;;;5.75;100.00;101396.38;5013751;28;20083;-60
2022/11/29 00:55:54;;;;;;;57.75;24.77;;;;;;;5.73;100.00;101394.69;5007204;28;20034;-59
2022/11/29 00:58:20;;;;;;;68.70;25.45;;;;;;;5.73;100.00;101397.44;5007638;28;20168;-59
2022/11/29 01:00:46;;;;;;;64.70;25.17;;;;;;;5.74;100.00;101398.25;5006622;28;20069;-59
2022/11/29 01:03:12;;;;;;;63.00;25.08;;;;;;;5.75;100.00;101391.78;5003431;28;20030;-60
2022/11/29 01:05:37;;;;;;;65.25;26.17;;;;;;;5.77;100.00;101394.31;5007006;28;20041;-60
2022/11/29 01:08:03;;;;;;;71.75;26.77;;;;;;;5.81;100.00;101390.19;5008316;28;20049;-60
2022/11/29 01:10:28;;;;;;;63.05;26.00;;;;;;;5.84;100.00;101395.28;5009814;28;20029;-59
2022/11/29 01:12:54;;;;;;;65.78;27.80;;;;;;;5.87;100.00;101390.28;5011290;28;20028;-60
2022/11/29 01:15:19;;;;;;;73.53;29.65;;;;;;;5.89;100.00;101393.69;5008113;28;20037;-59
2022/11/29 01:17:45;;;;;;;45.95;26.17;;;;;;;5.91;100.00;101390.75;4990492;28;20038;-60
2022/11/29 01:20:11;;;;;;;63.25;26.38;;;;;;;5.89;100.00;101392.84;5001541;28;20080;-59
2022/11/29 01:22:37;;;;;;;87.13;26.60;;;;;;;5.86;100.00;101393.19;5007765;28;20049;-60
2022/11/29 01:25:05;;;;;;;86.47;26.90;;;;;;;5.81;100.00;101399.19;5004728;28;20065;-60
2022/11/29 01:27:31;;;;;;;73.88;27.73;;;;;;;5.79;100.00;101394.97;5014150;28;20049;-59
2022/11/29 01:29:56;;;;;;;60.05;25.73;;;;;;;5.77;100.00;101399.75;5014507;28;20030;-60
2022/11/29 01:32:21;;;;;;;63.33;26.15;;;;;;;5.75;100.00;101396.38;5008155;28;20121;-61
2022/11/29 01:34:47;;;;;;;63.53;26.08;;;;;;;5.71;100.00;101391.28;5005620;28;20033;-60
2022/11/29 01:37:12;;;;;;;67.22;25.67;;;;;;;5.70;100.00;101392.31;5007490;28;20038;-61
2022/11/29 01:39:37;;;;;;;47.22;23.13;;;;;;;5.67;100.00;101400.88;5015838;28;20052;-60
2022/11/29 01:42:03;;;;;;;42.53;22.73;;;;;;;5.59;100.00;101400.97;5006348;28;20087;-60
2022/11/29 01:44:28;;;;;;;41.95;23.08;;;;;;;5.51;100.00;101397.44;5005141;28;20685;-60
2022/11/29 01:46:55;;;;;;;48.10;23.80;;;;;;;5.45;100.00;101399.88;5006465;28;20026;-60
2022/11/29 01:49:37;;;;;;;39.88;22.38;;;;;;;5.45;100.00;101413.50;5006029;28;20465;-62
2022/11/29 01:52:27;;;;;;;41.85;23.77;;;;;;;5.45;100.00;101408.06;5012107;28;20033;-60
2022/11/29 01:54:58;;;;;;;43.92;23.27;;;;;;;5.39;100.00;101416.97;5004109;28;20112;-59
2022/11/29 01:57:25;;;;;;;38.70;23.90;;;;;;;5.36;100.00;101409.16;5007173;28;20034;-59
2022/11/29 01:59:55;;;;;;;42.20;24.80;;;;;;;5.34;100.00;101426.72;5008443;28;20026;-62
2022/11/29 02:02:31;;;;;;;36.88;24.38;;;;;;;5.34;100.00;101422.13;5010451;28;20104;-60
2022/11/29 02:04:58;;;;;;;41.25;23.10;;;;;;;5.36;100.00;101422.75;5005528;28;20042;-59
2022/11/29 02:07:23;;;;;;;43.05;24.13;;;;;;;5.35;100.00;101423.81;5006168;28;20021;-60
2022/11/29 02:09:48;;;;;;;47.42;24.00;;;;;;;5.36;100.00;101430.94;5006219;28;20358;-59
2022/11/29 02:12:29;;;;;;;56.17;24.70;;;;;;;5.41;100.00;101438.56;5006368;28;20125;-60
2022/11/29 02:14:54;;;;;;;79.82;26.38;;;;;;;5.40;100.00;101435.00;5020054;28;20105;-60
2022/11/29 02:17:40;;;;;;;57.77;26.20;;;;;;;5.45;100.00;101435.28;4995615;28;20109;-59
2022/11/29 02:20:17;;;;;;;67.22;25.70;;;;;;;5.44;100.00;101440.94;5003419;28;20095;-59
2022/11/29 02:23:16;;;;;;;59.15;25.23;;;;;;;5.47;100.00;101429.66;5006160;28;20037;-59
2022/11/29 02:26:20;;;;;;;61.22;25.55;;;;;;;5.51;100.00;101433.72;5008159;28;20079;-59
2022/11/29 02:29:13;;;;;;;58.35;25.45;;;;;;;5.53;100.00;101439.00;5006410;28;20514;-59
2022/11/29 02:32:32;;;;;;;53.70;25.55;;;;;;;5.56;100.00;101439.47;5011851;28;20026;-60
2022/11/29 02:35:45;;;;;;;64.40;26.17;;;;;;;5.55;100.00;101437.78;4909649;29;20059;-60
2022/11/29 02:38:38;;;;;;;54.83;26.40;;;;;;;5.57;100.00;101443.03;4925767;29;20051;-59
2022/11/29 02:41:28;;;;;;;86.90;27.63;;;;;;;5.58;100.00;101445.59;5004287;28;20137;-59
2022/11/29 02:44:21;;;;;;;94.32;29.60;;;;;;;5.57;100.00;101452.03;5004654;28;21016;-61
2022/11/29 02:47:19;;;;;;;93.53;30.27;;;;;;;5.60;100.00;101450.84;5005061;28;20108;-59
2022/11/29 02:49:57;;;;;;;79.50;27.88;;;;;;;5.56;100.00;101453.09;5004868;28;20140;-60
2022/11/29 02:52:46;;;;;;;94.78;29.25;;;;;;;5.61;100.00;101449.81;5006275;28;20022;-59
2022/11/29 02:55:20;;;;;;;98.72;31.60;;;;;;;5.60;100.00;101446.25;5007525;28;20491;-60
2022/11/29 02:58:05;;;;;;;66.93;26.98;;;;;;;5.62;100.00;101451.50;4996361;28;20600;-59
2022/11/29 03:00:34;;;;;;;70.72;27.52;;;;;;;5.60;100.00;101457.16;5006367;28;20461;-60
2022/11/29 03:03:11;;;;;;;101.15;29.63;;;;;;;5.62;100.00;101456.94;5015321;28;20033;-59
2022/11/29 03:05:56;;;;;;;83.18;28.85;;;;;;;5.62;100.00;101462.41;5011072;28;20042;-59
2022/11/29 03:08:41;;;;;;;106.22;29.67;;;;;;;5.65;100.00;101465.63;5005625;28;20136;-60
2022/11/29 03:11:36;;;;;;;96.28;29.67;;;;;;;5.67;100.00;101471.72;5005421;28;20034;-60
2022/11/29 03:14:21;;;;;;;103.65;31.60;;;;;;;5.64;100.00;101466.66;4987689;28;20045;-59
2022/11/29 03:16:52;;;;;;;94.07;29.95;;;;;;;5.63;100.00;101464.13;5000141;28;20042;-60
2022/11/29 03:19:55;;;;;;;79.70;29.67;;;;;;;5.62;100.00;101474.16;4996028;28;20034;-60
2022/11/29 03:22:32;;;;;;;68.65;27.02;;;;;;;5.58;100.00;101472.00;4991229;28;20137;-62
2022/11/29 03:25:26;;;;;;;61.75;27.95;;;;;;;5.55;100.00;101481.38;5009221;28;20030;-60
2022/11/29 03:28:00;;;;;;;62.65;27.70;;;;;;;5.55;100.00;101480.53;4995310;28;20560;-61
2022/11/29 03:30:27;;;;;;;58.97;26.52;;;;;;;5.53;100.00;101480.72;5004396;28;20037;-60
2022/11/29 03:33:01;;;;;;;57.00;28.30;;;;;;;5.53;100.00;101485.31;4988850;28;20073;-60
2022/11/29 03:35:36;;;;;;;65.18;28.08;;;;;;;5.50;100.00;101481.06;5008017;28;20123;-59
2022/11/29 03:38:31;;;;;;;56.67;27.80;;;;;;;5.52;100.00;101487.16;5008537;28;20431;-61
2022/11/29 03:41:17;;;;;;;72.40;28.45;;;;;;;5.47;100.00;101486.88;5013706;28;20046;-60
2022/11/29 03:43:46;;;;;;;63.50;28.75;;;;;;;5.48;100.00;101488.59;5008202;28;20045;-60
2022/11/29 03:46:17;;;;;;;77.65;27.17;;;;;;;5.46;100.00;101491.47;5008773;28;20046;-59
2022/11/29 03:48:47;;;;;;;69.18;27.63;;;;;;;5.44;100.00;101498.16;5006058;28;20163;-60
2022/11/29 03:51:14;;;;;;;74.32;27.52;;;;;;;5.44;100.00;101499.00;5009292;28;20112;-61
2022/11/29 03:53:50;;;;;;;87.15;27.73;;;;;;;5.41;100.00;101498.50;5007889;28;20429;-60
2022/11/29 03:56:27;;;;;;;60.88;27.13;;;;;;;5.41;100.00;101503.94;5014052;28;20032;-60
2022/11/29 03:59:13;;;;;;;91.38;28.33;;;;;;;5.43;100.00;101510.91;5018795;28;20171;-59
2022/11/29 04:02:01;;;;;;;102.10;30.48;;;;;;;5.42;100.00;101519.25;4993513;28;20022;-59
2022/11/29 04:04:48;;;;;;;93.30;28.67;;;;;;;5.42;100.00;101505.63;5009580;28;20471;-60
2022/11/29 04:07:38;;;;;;;97.68;28.48;;;;;;;5.46;100.00;101517.88;5010111;28;20017;-60
2022/11/29 04:10:49;;;;;;;88.05;27.42;;;;;;;5.45;100.00;101527.06;5016757;28;20045;-61
2022/11/29 04:13:34;;;;;;;72.97;27.25;;;;;;;5.44;100.00;101511.75;5009298;28;20033;-60
2022/11/29 04:16:24;;;;;;;80.43;28.38;;;;;;;5.42;100.00;101509.22;5007082;28;20047;-60
2022/11/29 04:19:24;;;;;;;78.25;26.95;;;;;;;5.42;100.00;101511.97;5008084;28;20145;-59
2022/11/29 04:22:23;;;;;;;84.35;27.67;;;;;;;5.42;100.00;101511.09;5014010;28;20052;-61
2022/11/29 04:25:14;;;;;;;85.70;26.73;;;;;;;5.40;100.00;101524.88;5011111;28;20044;-60
2022/11/29 04:27:48;;;;;;;67.95;27.17;;;;;;;5.35;100.00;101527.31;5017251;28;20038;-60
2022/11/29 04:30:20;;;;;;;69.70;27.17;;;;;;;5.32;100.00;101532.25;5021039;28;20038;-60
2022/11/29 04:33:06;;;;;;;65.47;26.70;;;;;;;5.32;100.00;101532.25;5008077;28;20029;-60
2022/11/29 04:35:53;;;;;;;73.18;26.38;;;;;;;5.28;100.00;101537.25;5006056;28;20032;-61
2022/11/29 04:38:52;;;;;;;45.87;24.37;;;;;;;5.31;100.00;101541.47;5010446;28;20040;-61
2022/11/29 04:41:51;;;;;;;76.45;28.13;;;;;;;5.29;100.00;101541.66;5015083;28;20395;-60
2022/11/29 04:44:41;;;;;;;64.53;26.70;;;;;;;5.22;100.00;101537.97;5001187;28;20034;-60
2022/11/29 04:47:42;;;;;;;46.33;24.75;;;;;;;5.27;100.00;101542.84;5008165;28;20030;-61
2022/11/29 04:50:23;;;;;;;49.40;23.85;;;;;;;5.25;100.00;101550.34;5007934;28;20037;-59
2022/11/29 04:52:56;;;;;;;52.28;24.52;;;;;;;5.23;100.00;101552.41;5007311;28;20084;-60
2022/11/29 04:55:48;;;;;;;59.05;25.75;;;;;;;5.29;100.00;101551.69;5005179;28;20038;-60
2022/11/29 04:58:32;;;;;;;41.85;25.25;;;;;;;5.30;100.00;101556.97;4990208;28;20027;-60
2022/11/29 05:01:17;;;;;;;55.92;24.90;;;;;;;5.32;100.00;101557.66;5006176;28;20140;-59
2022/11/29 05:03:53;;;;;;;47.25;24.92;;;;;;;5.33;100.00;101562.06;5008295;28;20120;-61
2022/11/29 05:06:28;;;;;;;40.20;25.33;;;;;;;5.35;100.00;101553.69;5008478;28;20702;-60
2022/11/29 05:09:14;;;;;;;41.90;25.25;;;;;;;5.39;100.00;101555.03;5006185;28;20042;-60
2022/11/29 05:12:22;;;;;;;43.58;26.40;;;;;;;5.40;100.00;101564.91;5008742;28;20671;-59
2022/11/29 05:15:09;;;;;;;43.35;24.27;;;;;;;5.39;100.00;101568.66;4977380;28;20041;-61
2022/11/29 05:17:41;;;;;;;52.20;26.98;;;;;;;5.40;100.00;101579.38;4988746;28;20373;-59
2022/11/29 05:20:35;;;;;;;51.95;26.75;;;;;;;5.44;100.00;101583.44;4988244;28;20429;-60
2022/11/29 05:23:17;;;;;;;42.65;25.98;;;;;;;5.44;100.00;101585.31;4986750;28;20053;-60
2022/11/29 05:26:02;;;;;;;50.63;25.52;;;;;;;5.45;100.00;101587.00;4988216;28;20133;-60
2022/11/29 05:28:49;;;;;;;59.75;26.92;;;;;;;5.45;100.00;101587.00;4988202;28;20030;-59
2022/11/29 05:31:20;;;;;;;73.95;28.13;;;;;;;5.44;100.00;101588.88;5000649;28;20025;-60
2022/11/29 05:34:20;;;;;;;71.60;27.50;;;;;;;5.46;100.00;101591.44;5008088;28;20141;-59
2022/11/29 05:37:00;;;;;;;75.00;30.08;;;;;;;5.44;100.00;101596.22;5008512;28;20033;-59
2022/11/29 05:39:40;;;;;;;106.60;29.42;;;;;;;5.46;100.00;101594.16;5006796;28;20034;-59
2022/11/29 05:42:24;;;;;;;134.70;30.63;;;;;;;5.44;100.00;101602.50;5007848;28;20036;-59
2022/11/29 05:44:57;;;;;;;111.07;30.02;;;;;;;5.43;100.00;101602.69;5007639;28;20108;-61
2022/11/29 05:47:35;;;;;;;75.50;27.98;;;;;;;5.45;100.00;101608.81;5006013;28;20474;-59
2022/11/29 05:50:29;;;;;;;80.07;28.65;;;;;;;5.46;100.00;101611.34;4995962;28;20073;-59
2022/11/29 05:53:13;;;;;;;74.75;29.65;;;;;;;5.47;100.00;101615.78;5006195;28;20030;-60
2022/11/29 05:55:50;;;;;;;87.43;29.55;;;;;;;5.47;100.00;101617.63;4986909;28;20046;-59
2022/11/29 05:58:37;;;;;;;83.85;29.80;;;;;;;5.50;100.00;101619.16;5004689;28;20033;-60
2022/11/29 06:01:18;;;;;;;100.28;30.08;;;;;;;5.52;100.00;101622.56;5006949;28;20034;-60
2022/11/29 06:04:06;;;;;;;99.50;30.10;;;;;;;5.53;100.00;101622.41;5006729;28;20113;-59
2022/11/29 06:06:46;;;;;;;79.65;29.02;;;;;;;5.54;100.00;101628.69;4996292;28;20657;-60
2022/11/29 06:09:18;;;;;;;129.30;32.08;;;;;;;5.52;100.00;101631.56;5004126;28;20049;-58
2022/11/29 06:11:53;;;;;;;128.07;31.80;;;;;;;5.55;100.00;101631.22;5006063;28;20029;-59
2022/11/29 06:15:00;;;;;;;65.88;29.23;;;;;;;5.56;100.00;101632.91;5006510;28;20049;-59
2022/11/29 06:17:41;;;;;;;69.03;29.83;;;;;;;5.55;100.00;101641.28;4970354;28;20591;-60
2022/11/29 06:20:32;;;;;;;92.93;29.27;;;;;;;5.57;100.00;101639.22;4987324;28;20285;-61
2022/11/29 06:23:16;;;;;;;77.28;28.88;;;;;;;5.52;100.00;101645.19;5004362;28;20486;-60
2022/11/29 06:25:47;;;;;;;80.07;28.90;;;;;;;5.50;100.00;101647.25;5006410;28;20228;-59
2022/11/29 06:28:31;;;;;;;65.88;28.60;;;;;;;5.51;100.00;101656.28;5006692;28;20074;-59
2022/11/29 06:31:05;;;;;;;84.00;30.23;;;;;;;5.52;100.00;101649.78;5007194;28;20036;-60
2022/11/29 06:34:02;;;;;;;66.63;29.42;;;;;;;5.56;100.00;101657.44;5007069;28;20065;-60
2022/11/29 06:36:39;;;;;;;86.20;29.48;;;;;;;5.53;100.00;101673.31;5002182;28;20045;-59
2022/11/29 06:39:05;;;;;;;86.43;28.33;;;;;;;5.52;100.00;101668.88;5005479;28;20033;-59
2022/11/29 06:41:31;;;;;;;112.18;29.33;;;;;;;5.50;100.00;101670.94;5006854;28;20030;-60
2022/11/29 06:43:56;;;;;;;80.85;29.70;;;;;;;5.51;100.00;101672.63;5005929;28;20088;-61
2022/11/29 06:46:26;;;;;;;83.70;29.42;;;;;;;5.50;100.00;101682.69;5007129;28;20054;-61
2022/11/29 06:49:01;;;;;;;77.80;28.90;;;;;;;5.51;100.00;101686.25;4995874;28;20030;-60
2022/11/29 06:51:44;;;;;;;90.88;28.50;;;;;;;5.51;100.00;101691.69;4993247;28;20046;-61
2022/11/29 06:54:29;;;;;;;81.20;28.42;;;;;;;5.52;100.00;101696.13;4992029;28;20417;-61
2022/11/29 06:57:26;;;;;;;74.65;34.20;;;;;;;5.51;100.00;101694.44;4991965;28;20038;-61
2022/11/29 07:00:08;;;;;;;79.37;29.50;;;;;;;5.50;100.00;101703.63;4986068;28;20479;-60
2022/11/29 07:03:14;;;;;;;85.00;26.83;;;;;;;5.50;100.00;101704.47;4965646;28;20776;-59
2022/11/29 07:05:40;;;;;;;70.95;27.35;;;;;;;5.47;100.00;101704.81;4992034;28;20104;-60
2022/11/29 07:08:18;;;;;;;64.03;27.73;;;;;;;5.46;100.00;101703.13;4987605;28;20046;-61
2022/11/29 07:10:45;;;;;;;;;;;;;;;5.54;100.00;101704.97;4992305;28;20671;-60
2022/11/29 07:13:14;;;;;;;74.30;26.90;;;;;;;5.45;100.00;101707.72;4998225;28;20101;-60
2022/11/29 07:16:02;;;;;;;68.20;27.95;;;;;;;5.45;100.00;101712.31;4992732;28;20041;-61
2022/11/29 07:18:33;;;;;;;77.13;27.38;;;;;;;5.46;100.00;101711.28;5008661;28;20393;-61
2022/11/29 07:21:17;;;;;;;78.93;27.88;;;;;;;5.50;100.00;101715.38;5010380;28;20425;-61
2022/11/29 07:23:49;;;;;;;79.70;29.08;;;;;;;5.50;100.00;101719.97;4992458;28;20497;-59
2022/11/29 07:26:27;;;;;;;81.28;28.08;;;;;;;5.51;100.00;101727.97;4989134;28;20034;-60
2022/11/29 07:29:19;;;;;;;66.53;29.23;;;;;;;5.56;100.00;101724.72;4992944;28;20033;-59
2022/11/29 07:32:12;;;;;;;90.78;29.10;;;;;;;5.53;100.00;101728.66;5001943;28;20088;-60
2022/11/29 07:34:38;;;;;;;89.32;31.55;;;;;;;5.55;100.00;101731.19;4989485;28;20065;-60
2022/11/29 07:37:28;;;;;;;104.90;36.07;;;;;;;5.57;100.00;101735.44;4989362;28;20117;-62
2022/11/29 07:40:25;;;;;;;100.63;32.55;;;;;;;5.58;100.00;101737.16;4987546;28;20037;-59
2022/11/29 07:43:20;;;;;;;86.05;29.75;;;;;;;5.61;100.00;101734.06;4988008;28;20038;-61
2022/11/29 07:45:45;;;;;;;72.50;27.70;;;;;;;5.56;100.00;101741.91;4988045;28;20501;-60
2022/11/29 07:48:11;;;;;;;97.78;27.75;;;;;;;5.53;100.00;101736.00;5007697;28;20025;-61
2022/11/29 07:50:37;;;;;;;119.50;30.33;;;;;;;5.55;100.00;101744.81;5007836;28;20033;-60
2022/11/29 07:53:03;;;;;;;105.45;28.85;;;;;;;5.58;100.00;101747.22;5007285;28;20033;-61
2022/11/29 07:55:30;;;;;;;109.47;29.92;;;;;;;5.58;100.00;101745.34;5007088;28;20377;-60
2022/11/29 07:57:55;;;;;;;84.53;33.30;;;;;;;5.58;100.00;101749.94;4989609;28;20034;-59
2022/11/29 08:00:21;;;;;;;76.43;31.15;;;;;;;5.56;100.00;101755.53;4988149;28;20030;-61
2022/11/29 08:02:47;;;;;;;81.70;33.17;;;;;;;5.54;100.00;101749.44;4988715;28;20034;-61
2022/11/29 08:05:13;;;;;;;104.95;35.25;;;;;;;5.56;100.00;101747.38;5006603;28;20026;-59
2022/11/29 08:07:39;;;;;;;106.55;33.78;;;;;;;5.58;100.00;101756.22;5006631;28;20025;-61
2022/11/29 08:10:08;;;;;;;83.93;31.75;;;;;;;5.57;100.00;101746.34;5006723;28;20048;-59
2022/11/29 08:12:34;;;;;;;107.40;31.30;;;;;;;5.62;100.00;101759.44;5007257;28;20296;-60
2022/11/29 08:15:00;;;;;;;63.88;29.98;;;;;;;5.67;100.00;101749.69;5006759;28;20026;-60
2022/11/29 08:17:25;;;;;;;65.82;27.73;;;;;;;5.73;100.00;101749.00;5007054;28;20026;-60
2022/11/29 08:19:51;;;;;;;85.30;29.00;;;;;;;5.75;100.00;101756.16;5006712;28;20018;-61
2022/11/29 08:22:17;;;;;;;79.13;28.45;;;;;;;5.79;100.00;101758.34;5006051;28;20080;-61
2022/11/29 08:24:42;;;;;;;81.88;31.08;;;;;;;5.84;100.00;101758.69;5006589;28;20037;-62
2022/11/29 08:27:07;;;;;;;66.10;29.58;;;;;;;5.89;100.00;101760.88;5006841;28;20026;-59
2022/11/29 08:29:32;;;;;;;65.43;28.23;;;;;;;5.91;100.00;101761.53;5007139;28;20109;-61
2022/11/29 08:31:58;;;;;;;79.05;28.27;;;;;;;5.92;100.00;101761.38;5007151;28;20236;-60
2022/11/29 08:34:24;;;;;;;64.05;27.25;;;;;;;5.95;100.00;101765.63;5006339;28;20394;-60
2022/11/29 08:36:50;;;;;;;77.35;28.45;;;;;;;5.96;100.00;101760.00;5007027;28;20108;-60
2022/11/29 08:39:15;;;;;;;69.30;28.00;;;;;;;5.99;100.00;101769.72;5005578;28;20026;-60
2022/11/29 08:41:41;;;;;;;62.97;27.48;;;;;;;6.02;100.00;101768.50;5007249;28;20034;-61
2022/11/29 08:44:06;;;;;;;56.70;26.80;;;;;;;6.05;100.00;101770.88;5006085;28;20408;-60
2022/11/29 08:49:16;;;;;;;64.32;29.08;;;;;;;6.13;100.00;101777.16;5007534;28;20128;-60
2022/11/29 08:51:42;;;;;;;79.72;29.67;;;;;;;6.17;100.00;101783.06;5006829;28;20503;-60
2022/11/29 08:54:07;;;;;;;65.57;29.35;;;;;;;6.24;100.00;101784.91;5005015;28;20054;-61
2022/11/29 08:56:35;;;;;;;69.45;29.10;;;;;;;6.31;100.00;101789.66;5006436;28;20032;-60
2022/11/29 08:59:00;;;;;;;76.95;30.48;;;;;;;6.38;100.00;101790.63;5006213;28;20052;-60
2022/11/29 09:01:27;;;;;;;80.75;30.98;;;;;;;6.42;100.00;101791.97;4996103;28;20045;-60
2022/11/29 09:03:59;;;;;;;70.45;29.52;;;;;;;6.47;100.00;101795.00;5002566;28;20061;-60
2022/11/29 09:06:30;;;;;;;104.03;28.73;;;;;;;6.50;100.00;101800.13;4997519;28;20026;-61
2022/11/29 09:08:56;;;;;;;84.28;29.60;;;;;;;6.52;100.00;101803.50;4995696;28;20038;-59
2022/11/29 09:11:23;;;;;;;78.85;29.80;;;;;;;6.51;100.00;101804.53;4992524;28;20026;-61
2022/11/29 09:13:55;;;;;;;103.20;28.85;;;;;;;6.52;100.00;101805.38;4996774;28;20132;-60
2022/11/29 09:16:24;;;;;;;116.53;30.88;;;;;;;6.56;100.00;101813.03;4996400;28;20060;-62
2022/11/29 09:18:51;;;;;;;88.45;28.88;;;;;;;6.60;100.00;101808.06;4991010;28;20113;-61
2022/11/29 09:21:16;;;;;;;85.40;29.75;;;;;;;6.62;100.00;101814.19;4996496;28;20046;-60
2022/11/29 09:23:45;;;;;;;131.27;32.67;;;;;;;6.67;100.00;101814.50;5002485;28;20254;-61
2022/11/29 09:26:16;;;;;;;117.40;30.10;;;;;;;6.72;100.00;101818.38;5000931;28;20033;-61
2022/11/29 09:28:42;;;;;;;106.30;31.15;;;;;;;6.78;100.00;101824.13;4997396;28;20034;-60
2022/11/29 09:31:09;;;;;;;102.93;32.40;;;;;;;6.82;100.00;101825.47;4989353;28;20053;-61
2022/11/29 09:33:35;;;;;;;100.45;31.13;;;;;;;6.87;100.00;101828.50;4985684;28;20076;-60
2022/11/29 09:36:01;;;;;;;74.95;28.50;;;;;;;6.94;100.00;101832.19;4995324;28;20472;-59
2022/11/29 09:38:27;;;;;;;111.50;30.33;;;;;;;6.92;100.00;101845.19;4998033;28;20116;-60
2022/11/29 09:40:55;;;;;;;85.93;30.38;;;;;;;6.96;100.00;101839.19;5000794;28;20109;-60
2022/11/29 09:43:28;;;;;;;94.10;29.60;;;;;;;6.98;100.00;101839.00;5016724;28;20393;-62
2022/11/29 09:46:14;;;;;;;98.38;28.25;;;;;;;6.98;100.00;101839.84;5004445;28;20034;-60
2022/11/29 09:48:55;;;;;;;78.28;27.02;;;;;;;6.98;100.00;101848.03;4997068;28;20646;-61
2022/11/29 09:51:34;;;;;;;76.88;28.02;;;;;;;7.01;100.00;101855.03;5011381;28;20044;-62
2022/11/29 09:54:12;;;;;;;72.78;27.33;;;;;;;7.04;100.00;101849.19;5010141;28;20041;-60
2022/11/29 09:56:43;;;;;;;84.00;28.73;;;;;;;7.05;100.00;101859.09;4993666;28;20080;-61
2022/11/29 09:59:17;;;;;;;76.45;28.15;;;;;;;7.03;100.00;101850.22;4995636;28;20124;-60
2022/11/29 10:01:52;;;;;;;84.38;27.83;;;;;;;7.02;100.00;101859.44;5010671;28;20487;-60
2022/11/29 10:04:22;;;;;;;91.72;28.25;;;;;;;7.03;100.00;101851.06;5002906;28;20039;-59
2022/11/29 10:06:53;;;;;;;87.72;28.35;;;;;;;7.07;100.00;101858.91;5005922;28;20531;-59
2022/11/29 10:09:29;;;;;;;90.50;28.38;;;;;;;7.11;100.00;101854.78;5004904;28;20046;-61
2022/11/29 10:12:17;;;;;;;67.20;24.70;;;;;;;7.10;100.00;101853.94;5001942;28;20041;-59
2022/11/29 10:14:52;;;;;;;64.00;22.67;;;;;;;7.15;100.00;101851.50;5004458;28;20049;-61
2022/11/29 10:17:40;;;;;;;63.28;21.08;;;;;;;7.20;100.00;101857.28;5000226;28;20030;-60
2022/11/29 10:20:28;;;;;;;66.15;21.23;;;;;;;7.25;100.00;101863.03;5000575;28;20030;-61
2022/11/29 10:23:00;;;;;;;53.05;22.08;;;;;;;7.22;100.00;101854.34;5004878;28;20044;-61
2022/11/29 10:25:44;;;;;;;51.95;20.02;;;;;;;7.20;100.00;101851.81;5003159;28;20014;-60
2022/11/29 10:28:14;;;;;;;49.70;19.88;;;;;;;7.17;100.00;101848.59;4988506;28;20043;-60
2022/11/29 10:30:41;;;;;;;48.20;23.13;;;;;;;7.15;100.00;101837.84;5003035;28;20030;-60
2022/11/29 10:33:29;;;;;;;55.00;22.85;;;;;;;7.14;100.00;101847.06;5003266;28;20037;-60
2022/11/29 10:35:57;;;;;;;76.30;23.88;;;;;;;7.04;100.00;101851.91;4990958;28;20038;-60
2022/11/29 10:38:23;;;;;;;66.53;22.77;;;;;;;7.04;100.00;101846.44;4985215;28;20030;-61
2022/11/29 10:40:53;;;;;;;65.00;21.65;;;;;;;6.99;100.00;101848.88;5002845;28;20116;-60
2022/11/29 10:43:18;;;;;;;51.40;21.63;;;;;;;6.96;100.00;101849.25;5004757;28;20042;-61
2022/11/29 10:45:54;;;;;;;51.78;22.80;;;;;;;6.95;100.00;101851.16;5011497;28;20044;-60
2022/11/29 10:48:22;;;;;;;65.38;24.00;;;;;;;6.91;100.00;101848.97;5001910;28;20045;-60
2022/11/29 10:50:49;;;;;;;56.95;22.80;;;;;;;6.97;100.00;101846.34;5004216;28;20586;-61
2022/11/29 10:53:39;;;;;;;54.70;22.50;;;;;;;7.01;100.00;101850.41;5005868;28;20026;-60
2022/11/29 10:56:08;;;;;;;58.50;21.80;;;;;;;6.99;100.00;101855.22;5008081;28;20077;-60
2022/11/29 10:58:35;;;;;;;62.80;23.90;;;;;;;6.98;100.00;101858.97;5013738;28;20631;-59
2022/11/29 11:01:06;;;;;;;57.35;23.13;;;;;;;7.00;100.00;101864.25;5011907;28;20025;-61
2022/11/29 11:03:36;;;;;;;79.63;25.38;;;;;;;6.99;100.00;101857.06;5028304;28;20053;-60
2022/11/29 11:06:16;;;;;;;71.32;25.33;;;;;;;7.05;100.00;101859.09;5026542;28;20037;-60
2022/11/29 11:08:44;;;;;;;84.88;26.33;;;;;;;7.03;100.00;101861.16;5020571;28;20119;-60
2022/11/29 11:11:11;;;;;;;68.00;25.42;;;;;;;7.07;100.00;101861.66;5015316;28;20603;-61
2022/11/29 11:13:39;;;;;;;94.68;30.17;;;;;;;7.10;100.00;101867.59;5013178;28;20029;-60
2022/11/29 11:16:25;;;;;;;68.40;26.92;;;;;;;7.16;100.00;101857.81;5005352;28;20060;-60
2022/11/29 11:18:51;;;;;;;67.28;26.73;;;;;;;7.16;100.00;101864.13;5012575;28;20676;-61
2022/11/29 11:21:19;;;;;;;76.95;26.15;;;;;;;7.17;100.00;101854.91;5006429;28;20366;-60
2022/11/29 11:23:55;;;;;;;64.13;25.10;;;;;;;7.21;100.00;101858.97;5002142;28;20370;-61
2022/11/29 11:26:22;;;;;;;63.78;25.77;;;;;;;7.26;100.00;101855.69;5009384;28;20040;-64
2022/11/29 11:28:57;;;;;;;70.07;25.48;;;;;;;7.26;100.00;101859.25;5009781;28;20036;-60
2022/11/29 11:31:34;;;;;;;68.93;25.77;;;;;;;7.29;100.00;101867.06;5009024;28;20038;-60
2022/11/29 11:34:27;;;;;;;68.32;25.85;;;;;;;7.35;100.00;101862.78;5011057;28;20036;-60
2022/11/29 11:37:11;;;;;;;73.13;26.00;;;;;;;7.34;100.00;101868.41;5007984;28;20038;-59
2022/11/29 11:39:36;;;;;;;75.93;26.40;;;;;;;7.29;100.00;101867.06;5008884;28;20034;-61
2022/11/29 11:44:52;;;;;;;60.97;24.88;;;;;;;7.22;100.00;101877.03;5009582;28;20447;-59
2022/11/29 11:47:30;;;;;;;68.32;27.50;;;;;;;7.24;100.00;101883.16;5003410;28;20049;-61
2022/11/29 11:50:01;;;;;;;69.55;26.50;;;;;;;7.25;100.00;101884.91;5026864;28;20033;-60
2022/11/29 11:52:34;;;;;;;70.20;26.35;;;;;;;7.28;100.00;101892.69;5028522;28;20084;-60
2022/11/29 11:55:06;;;;;;;64.45;27.92;;;;;;;7.31;100.00;101886.03;5004601;28;20061;-60
2022/11/29 11:57:31;;;;;;;66.47;26.65;;;;;;;7.33;100.00;101883.97;5012428;28;20079;-60